createdAt,value
2018-10-21T00:00:32.514Z,1011.67
2018-10-21T00:01:32.437Z,1011.69
2018-10-21T00:02:32.506Z,1011.72
2018-10-21T00:03:32.413Z,1011.66
2018-10-21T00:04:32.411Z,1011.71
2018-10-21T00:05:32.625Z,1011.66
2018-10-21T00:06:32.383Z,1011.65
2018-10-21T00:07:32.377Z,1011.64
2018-10-21T00:08:32.362Z,1011.70
2018-10-21T00:09:32.352Z,1011.69
2018-10-21T00:10:32.344Z,1011.68
2018-10-21T00:11:32.367Z,1011.63
2018-10-21T00:12:42.440Z,1011.66
2018-10-21T00:13:32.310Z,1011.66
2018-10-21T00:14:32.300Z,1011.62
2018-10-21T00:15:32.416Z,1011.68
2018-10-21T00:16:32.277Z,1011.65
2018-10-21T00:17:32.405Z,1011.74
2018-10-21T00:18:32.262Z,1011.77
2018-10-21T00:19:32.245Z,1011.82
2018-10-21T00:20:32.242Z,1011.88
2018-10-21T00:21:32.218Z,1011.87
2018-10-21T00:22:32.219Z,1011.99
2018-10-21T00:23:32.237Z,1011.94
2018-10-21T00:24:32.196Z,1011.98
2018-10-21T00:25:32.189Z,1011.99
2018-10-21T00:26:32.170Z,1012.04
2018-10-21T00:27:32.164Z,1012.01
2018-10-21T00:28:32.148Z,1012.06
2018-10-21T00:29:32.178Z,1012.02
2018-10-21T00:30:32.125Z,1012.09
2018-10-21T00:31:32.120Z,1012.03
2018-10-21T00:32:32.110Z,1012.02
2018-10-21T00:33:32.097Z,1012.04
2018-10-21T00:34:32.084Z,1012.05
2018-10-21T00:35:32.088Z,1012.03
2018-10-21T00:36:32.066Z,1012.00
2018-10-21T00:37:32.049Z,1011.99
2018-10-21T00:38:32.038Z,1011.91
2018-10-21T00:39:32.034Z,1011.91
2018-10-21T00:40:32.021Z,1011.91
2018-10-21T00:41:32.049Z,1011.91
2018-10-21T00:42:31.993Z,1011.91
2018-10-21T00:43:42.875Z,1011.95
2018-10-21T00:44:31.968Z,1011.99
2018-10-21T00:45:31.964Z,1012.00
2018-10-21T00:46:31.952Z,1012.00
2018-10-21T00:47:31.952Z,1011.98
2018-10-21T00:48:31.926Z,1011.96
2018-10-21T00:49:31.928Z,1011.97
2018-10-21T00:50:31.915Z,1011.99
2018-10-21T00:51:31.899Z,1011.98
2018-10-21T00:52:31.886Z,1012.04
2018-10-21T00:53:31.915Z,1012.03
2018-10-21T00:54:31.863Z,1012.01
2018-10-21T00:55:31.853Z,1012.03
2018-10-21T00:56:31.844Z,1012.01
2018-10-21T00:57:31.834Z,1012.02
2018-10-21T00:58:31.821Z,1011.97
2018-10-21T00:59:31.855Z,1012.02
2018-10-21T01:00:31.807Z,1011.97
2018-10-21T01:01:31.791Z,1011.97
2018-10-21T01:02:31.775Z,1011.91
2018-10-21T01:03:31.771Z,1011.93
2018-10-21T01:04:31.760Z,1011.96
2018-10-21T01:05:31.782Z,1011.92
2018-10-21T01:06:31.735Z,1011.96
2018-10-21T01:07:31.723Z,1011.91
2018-10-21T01:08:31.844Z,1011.92
2018-10-21T01:09:31.732Z,1011.87
2018-10-21T01:10:31.703Z,1011.96
2018-10-21T01:11:31.713Z,1011.90
2018-10-21T01:12:31.673Z,1011.89
2018-10-21T01:13:31.663Z,1011.82
2018-10-21T01:14:42.019Z,1011.90
2018-10-21T01:15:31.641Z,1011.89
2018-10-21T01:16:31.626Z,1011.87
2018-10-21T01:17:31.630Z,1011.90
2018-10-21T01:18:31.603Z,1011.87
2018-10-21T01:19:31.595Z,1011.88
2018-10-21T01:20:31.584Z,1011.90
2018-10-21T01:21:31.573Z,1011.90
2018-10-21T01:22:31.566Z,1011.91
2018-10-21T01:23:31.592Z,1011.84
2018-10-21T01:24:31.540Z,1011.83
2018-10-21T01:25:31.534Z,1011.83
2018-10-21T01:26:31.517Z,1011.86
2018-10-21T01:27:31.509Z,1011.88
2018-10-21T01:28:31.501Z,1011.85
2018-10-21T01:29:31.525Z,1011.82
2018-10-21T01:30:31.471Z,1011.84
2018-10-21T01:31:31.463Z,1011.80
2018-10-21T01:32:31.454Z,1011.89
2018-10-21T01:33:31.444Z,1011.92
2018-10-21T01:34:31.429Z,1011.93
2018-10-21T01:35:31.459Z,1011.98
2018-10-21T01:36:31.579Z,1011.98
2018-10-21T01:37:31.403Z,1011.95
2018-10-21T01:38:31.383Z,1011.98
2018-10-21T01:39:31.372Z,1011.98
2018-10-21T01:40:31.364Z,1012.00
2018-10-21T01:41:31.398Z,1011.99
2018-10-21T01:42:31.349Z,1011.93
2018-10-21T01:43:31.334Z,1011.94
2018-10-21T01:44:31.324Z,1011.93
2018-10-21T01:45:43.108Z,1011.90
2018-10-21T01:46:31.302Z,1011.93
2018-10-21T01:47:31.326Z,1011.92
2018-10-21T01:48:31.279Z,1011.96
2018-10-21T01:49:31.271Z,1011.93
2018-10-21T01:50:31.254Z,1011.91
2018-10-21T01:51:31.246Z,1011.93
2018-10-21T01:52:31.301Z,1011.98
2018-10-21T01:53:31.242Z,1011.96
2018-10-21T01:54:31.217Z,1012.00
2018-10-21T01:55:31.201Z,1011.95
2018-10-21T01:56:31.190Z,1012.01
2018-10-21T01:57:31.180Z,1011.98
2018-10-21T01:58:31.166Z,1011.98
2018-10-21T01:59:31.194Z,1011.93
2018-10-21T02:00:31.149Z,1011.91
2018-10-21T02:01:31.132Z,1011.93
2018-10-21T02:02:31.126Z,1011.94
2018-10-21T02:03:31.123Z,1011.93
2018-10-21T02:04:31.105Z,1011.94
2018-10-21T02:05:31.134Z,1011.91
2018-10-21T02:06:31.078Z,1011.90
2018-10-21T02:07:31.072Z,1011.94
2018-10-21T02:08:31.065Z,1011.95
2018-10-21T02:09:31.047Z,1011.93
2018-10-21T02:10:31.043Z,1011.98
2018-10-21T02:11:31.201Z,1012.03
2018-10-21T02:12:31.022Z,1012.01
2018-10-21T02:13:31.002Z,1011.94
2018-10-21T02:14:30.997Z,1011.97
2018-10-21T02:15:30.985Z,1011.99
2018-10-21T02:16:41.483Z,1011.96
2018-10-21T02:17:30.963Z,1011.97
2018-10-21T02:18:30.959Z,1012.01
2018-10-21T02:19:30.939Z,1012.00
2018-10-21T02:20:30.931Z,1011.96
2018-10-21T02:21:30.920Z,1012.01
2018-10-21T02:22:30.955Z,1011.96
2018-10-21T02:23:30.894Z,1011.96
2018-10-21T02:24:30.889Z,1011.97
2018-10-21T02:25:30.880Z,1011.93
2018-10-21T02:26:31.010Z,1011.94
2018-10-21T02:27:30.868Z,1011.89
2018-10-21T02:28:30.882Z,1011.94
2018-10-21T02:29:30.835Z,1011.89
2018-10-21T02:30:30.833Z,1011.90
2018-10-21T02:31:30.814Z,1011.91
2018-10-21T02:32:30.803Z,1011.92
2018-10-21T02:33:30.897Z,1011.95
2018-10-21T02:34:30.981Z,1011.87
2018-10-21T02:35:30.775Z,1011.88
2018-10-21T02:36:30.757Z,1011.89
2018-10-21T02:37:30.850Z,1011.86
2018-10-21T02:38:30.729Z,1011.84
2018-10-21T02:39:30.722Z,1011.86
2018-10-21T02:40:30.761Z,1011.84
2018-10-21T02:41:30.704Z,1011.89
2018-10-21T02:42:30.690Z,1011.94
2018-10-21T02:43:30.680Z,1011.98
2018-10-21T02:44:30.678Z,1011.99
2018-10-21T02:45:30.655Z,1012.01
2018-10-21T02:46:30.684Z,1012.07
2018-10-21T02:47:41.031Z,1012.01
2018-10-21T02:48:30.624Z,1012.04
2018-10-21T02:49:30.611Z,1012.05
2018-10-21T02:50:30.600Z,1012.03
2018-10-21T02:51:30.590Z,1012.05
2018-10-21T02:52:30.612Z,1012.07
2018-10-21T02:53:30.576Z,1012.08
2018-10-21T02:54:30.559Z,1012.05
2018-10-21T02:55:30.544Z,1012.05
2018-10-21T02:56:30.532Z,1012.06
2018-10-21T02:57:30.542Z,1012.03
2018-10-21T02:58:30.537Z,1012.02
2018-10-21T02:59:30.503Z,1012.01
2018-10-21T03:00:30.489Z,1012.01
2018-10-21T03:01:30.481Z,1012.03
2018-10-21T03:02:30.472Z,1012.08
2018-10-21T03:03:30.464Z,1012.00
2018-10-21T03:04:30.498Z,1012.05
2018-10-21T03:05:30.450Z,1012.04
2018-10-21T03:06:30.432Z,1012.05
2018-10-21T03:07:30.413Z,1012.07
2018-10-21T03:08:30.409Z,1012.06
2018-10-21T03:09:30.392Z,1012.08
2018-10-21T03:10:30.481Z,1012.06
2018-10-21T03:11:30.376Z,1012.04
2018-10-21T03:12:30.368Z,1012.05
2018-10-21T03:13:30.351Z,1012.09
2018-10-21T03:14:30.354Z,1012.02
2018-10-21T03:15:30.329Z,1012.02
2018-10-21T03:16:30.338Z,1012.04
2018-10-21T03:17:30.303Z,1012.02
2018-10-21T03:18:40.385Z,1011.97
2018-10-21T03:19:30.286Z,1012.01
2018-10-21T03:20:30.272Z,1011.99
2018-10-21T03:21:30.261Z,1011.98
2018-10-21T03:22:30.288Z,1012.02
2018-10-21T03:23:30.242Z,1011.99
2018-10-21T03:24:30.232Z,1011.95
2018-10-21T03:25:30.232Z,1011.95
2018-10-21T03:26:30.209Z,1011.96
2018-10-21T03:27:30.201Z,1011.93
2018-10-21T03:28:30.231Z,1011.95
2018-10-21T03:29:30.179Z,1011.94
2018-10-21T03:30:30.164Z,1012.00
2018-10-21T03:31:30.161Z,1012.00
2018-10-21T03:32:30.155Z,1012.00
2018-10-21T03:33:30.171Z,1012.03
2018-10-21T03:34:30.159Z,1012.04
2018-10-21T03:35:30.114Z,1012.00
2018-10-21T03:36:30.106Z,1012.01
2018-10-21T03:37:30.099Z,1012.06
2018-10-21T03:38:30.084Z,1012.06
2018-10-21T03:39:30.071Z,1012.11
2018-10-21T03:40:30.123Z,1012.07
2018-10-21T03:41:30.051Z,1012.05
2018-10-21T03:42:30.038Z,1012.01
2018-10-21T03:43:30.029Z,1011.94
2018-10-21T03:44:30.016Z,1011.92
2018-10-21T03:45:30.027Z,1011.97
2018-10-21T03:46:30.032Z,1011.90
2018-10-21T03:47:29.985Z,1011.89
2018-10-21T03:48:29.971Z,1011.89
2018-10-21T03:49:40.676Z,1011.89
2018-10-21T03:50:29.953Z,1011.91
2018-10-21T03:51:29.935Z,1011.88
2018-10-21T03:52:29.965Z,1011.91
2018-10-21T03:53:29.920Z,1011.90
2018-10-21T03:54:29.904Z,1011.87
2018-10-21T03:55:29.893Z,1011.86
2018-10-21T03:56:29.888Z,1011.84
2018-10-21T03:57:29.882Z,1011.87
2018-10-21T03:58:29.900Z,1011.84
2018-10-21T03:59:29.856Z,1011.85
2018-10-21T04:00:29.849Z,1011.84
2018-10-21T04:01:29.832Z,1011.87
2018-10-21T04:02:29.817Z,1011.85
2018-10-21T04:03:29.860Z,1011.84
2018-10-21T04:04:29.819Z,1011.80
2018-10-21T04:05:29.796Z,1011.86
2018-10-21T04:06:29.780Z,1011.80
2018-10-21T04:07:29.763Z,1011.80
2018-10-21T04:08:29.754Z,1011.75
2018-10-21T04:09:29.742Z,1011.69
2018-10-21T04:10:29.777Z,1011.70
2018-10-21T04:11:29.720Z,1011.65
2018-10-21T04:12:29.713Z,1011.65
2018-10-21T04:13:29.700Z,1011.61
2018-10-21T04:14:29.694Z,1011.66
2018-10-21T04:15:29.677Z,1011.68
2018-10-21T04:16:29.707Z,1011.65
2018-10-21T04:17:29.663Z,1011.65
2018-10-21T04:18:29.649Z,1011.61
2018-10-21T04:19:29.638Z,1011.68
2018-10-21T04:20:39.947Z,1011.72
2018-10-21T04:21:29.609Z,1011.76
2018-10-21T04:22:29.617Z,1011.76
2018-10-21T04:23:29.593Z,1011.79
2018-10-21T04:24:29.585Z,1011.78
2018-10-21T04:25:29.577Z,1011.78
2018-10-21T04:26:29.558Z,1011.70
2018-10-21T04:27:29.549Z,1011.67
2018-10-21T04:28:29.581Z,1011.68
2018-10-21T04:29:29.534Z,1011.67
2018-10-21T04:30:29.515Z,1011.66
2018-10-21T04:31:29.504Z,1011.68
2018-10-21T04:32:29.493Z,1011.66
2018-10-21T04:33:29.480Z,1011.67
2018-10-21T04:34:29.681Z,1011.68
2018-10-21T04:35:29.514Z,1011.66
2018-10-21T04:36:29.450Z,1011.60
2018-10-21T04:37:29.445Z,1011.58
2018-10-21T04:38:29.431Z,1011.59
2018-10-21T04:39:29.418Z,1011.56
2018-10-21T04:40:29.488Z,1011.55
2018-10-21T04:41:29.394Z,1011.58
2018-10-21T04:42:29.388Z,1011.62
2018-10-21T04:43:29.377Z,1011.58
2018-10-21T04:44:29.361Z,1011.64
2018-10-21T04:45:29.353Z,1011.66
2018-10-21T04:46:29.448Z,1011.67
2018-10-21T04:47:29.327Z,1011.67
2018-10-21T04:48:29.319Z,1011.66
2018-10-21T04:49:29.319Z,1011.62
2018-10-21T04:50:29.300Z,1011.62
2018-10-21T04:51:39.571Z,1011.58
2018-10-21T04:52:29.278Z,1011.58
2018-10-21T04:53:29.268Z,1011.56
2018-10-21T04:54:29.257Z,1011.59
2018-10-21T04:55:29.241Z,1011.66
2018-10-21T04:56:29.229Z,1011.63
2018-10-21T04:57:29.401Z,1011.62
2018-10-21T04:58:29.213Z,1011.67
2018-10-21T04:59:29.202Z,1011.74
2018-10-21T05:00:29.194Z,1011.76
2018-10-21T05:01:29.180Z,1011.75
2018-10-21T05:02:29.165Z,1011.73
2018-10-21T05:03:29.195Z,1011.74
2018-10-21T05:04:29.149Z,1011.76
2018-10-21T05:05:29.135Z,1011.75
2018-10-21T05:06:29.124Z,1011.80
2018-10-21T05:07:29.186Z,1011.79
2018-10-21T05:08:29.102Z,1011.78
2018-10-21T05:09:29.285Z,1011.76
2018-10-21T05:10:29.081Z,1011.75
2018-10-21T05:11:29.068Z,1011.77
2018-10-21T05:12:29.065Z,1011.78
2018-10-21T05:13:29.049Z,1011.82
2018-10-21T05:14:29.036Z,1011.76
2018-10-21T05:15:29.068Z,1011.74
2018-10-21T05:16:29.070Z,1011.77
2018-10-21T05:17:29.015Z,1011.72
2018-10-21T05:18:28.996Z,1011.75
2018-10-21T05:19:28.982Z,1011.73
2018-10-21T05:20:28.972Z,1011.70
2018-10-21T05:21:29.001Z,1011.72
2018-10-21T05:22:41.111Z,1011.78
2018-10-21T05:23:28.935Z,1011.71
2018-10-21T05:24:28.924Z,1011.71
2018-10-21T05:25:28.918Z,1011.71
2018-10-21T05:26:28.906Z,1011.69
2018-10-21T05:27:28.927Z,1011.76
2018-10-21T05:28:28.887Z,1011.73
2018-10-21T05:29:28.871Z,1011.71
2018-10-21T05:30:28.880Z,1011.71
2018-10-21T05:31:28.848Z,1011.71
2018-10-21T05:32:28.838Z,1011.73
2018-10-21T05:33:28.864Z,1011.71
2018-10-21T05:34:28.812Z,1011.71
2018-10-21T05:35:28.812Z,1011.78
2018-10-21T05:36:28.796Z,1011.75
2018-10-21T05:37:28.785Z,1011.78
2018-10-21T05:38:28.777Z,1011.73
2018-10-21T05:39:28.830Z,1011.74
2018-10-21T05:40:28.797Z,1011.71
2018-10-21T05:41:28.744Z,1011.64
2018-10-21T05:42:28.730Z,1011.67
2018-10-21T05:43:28.720Z,1011.65
2018-10-21T05:44:28.707Z,1011.64
2018-10-21T05:45:28.865Z,1011.64
2018-10-21T05:46:28.688Z,1011.59
2018-10-21T05:47:28.675Z,1011.55
2018-10-21T05:48:28.666Z,1011.52
2018-10-21T05:49:28.663Z,1011.51
2018-10-21T05:50:28.651Z,1011.55
2018-10-21T05:51:28.670Z,1011.53
2018-10-21T05:52:28.620Z,1011.51
2018-10-21T05:53:38.611Z,1011.45
2018-10-21T05:54:28.599Z,1011.43
2018-10-21T05:55:28.585Z,1011.37
2018-10-21T05:56:28.577Z,1011.40
2018-10-21T05:57:28.599Z,1011.39
2018-10-21T05:58:28.713Z,1011.31
2018-10-21T05:59:28.543Z,1011.34
2018-10-21T06:00:28.538Z,1011.39
2018-10-21T06:01:28.529Z,1011.40
2018-10-21T06:02:28.512Z,1011.36
2018-10-21T06:03:28.538Z,1011.39
2018-10-21T06:04:28.489Z,1011.37
2018-10-21T06:05:28.475Z,1011.30
2018-10-21T06:06:28.470Z,1011.36
2018-10-21T06:07:28.463Z,1011.30
2018-10-21T06:08:28.474Z,1011.38
2018-10-21T06:09:28.471Z,1011.38
2018-10-21T06:10:28.425Z,1011.42
2018-10-21T06:11:28.409Z,1011.47
2018-10-21T06:12:28.406Z,1011.42
2018-10-21T06:13:28.400Z,1011.48
2018-10-21T06:14:28.379Z,1011.48
2018-10-21T06:15:28.586Z,1011.46
2018-10-21T06:16:28.356Z,1011.51
2018-10-21T06:17:28.349Z,1011.45
2018-10-21T06:18:28.383Z,1011.45
2018-10-21T06:19:28.325Z,1011.42
2018-10-21T06:20:28.322Z,1011.41
2018-10-21T06:21:28.340Z,1011.43
2018-10-21T06:22:28.297Z,1011.43
2018-10-21T06:23:28.321Z,1011.40
2018-10-21T06:24:40.104Z,1011.48
2018-10-21T06:25:28.256Z,1011.45
2018-10-21T06:26:28.243Z,1011.47
2018-10-21T06:27:28.301Z,1011.52
2018-10-21T06:28:28.229Z,1011.47
2018-10-21T06:29:28.219Z,1011.53
2018-10-21T06:30:28.217Z,1011.55
2018-10-21T06:31:28.193Z,1011.61
2018-10-21T06:32:28.187Z,1011.66
2018-10-21T06:33:28.221Z,1011.68
2018-10-21T06:34:28.164Z,1011.65
2018-10-21T06:35:28.155Z,1011.63
2018-10-21T06:36:28.152Z,1011.63
2018-10-21T06:37:28.137Z,1011.67
2018-10-21T06:38:28.118Z,1011.71
2018-10-21T06:39:28.289Z,1011.70
2018-10-21T06:40:28.104Z,1011.81
2018-10-21T06:41:28.082Z,1011.74
2018-10-21T06:42:28.079Z,1011.80
2018-10-21T06:43:28.063Z,1011.82
2018-10-21T06:44:28.053Z,1011.81
2018-10-21T06:45:28.284Z,1011.87
2018-10-21T06:46:28.036Z,1011.87
2018-10-21T06:47:28.024Z,1011.86
2018-10-21T06:48:28.035Z,1011.91
2018-10-21T06:49:28.001Z,1011.88
2018-10-21T06:50:27.992Z,1011.87
2018-10-21T06:51:28.008Z,1011.86
2018-10-21T06:52:27.969Z,1011.87
2018-10-21T06:53:27.964Z,1011.84
2018-10-21T06:54:27.942Z,1011.82
2018-10-21T06:55:37.854Z,1011.92
2018-10-21T06:56:27.992Z,1011.88
2018-10-21T06:57:28.155Z,1011.93
2018-10-21T06:58:27.899Z,1011.97
2018-10-21T06:59:27.893Z,1011.97
2018-10-21T07:00:27.877Z,1011.98
2018-10-21T07:01:28.599Z,1012.01
2018-10-21T07:02:27.859Z,1011.98
2018-10-21T07:03:28.021Z,1012.03
2018-10-21T07:04:27.903Z,1011.93
2018-10-21T07:05:27.823Z,1011.93
2018-10-21T07:06:27.812Z,1011.95
2018-10-21T07:07:27.802Z,1011.96
2018-10-21T07:08:27.796Z,1011.93
2018-10-21T07:09:27.827Z,1011.98
2018-10-21T07:10:27.772Z,1011.97
2018-10-21T07:11:27.763Z,1011.95
2018-10-21T07:12:27.745Z,1011.97
2018-10-21T07:13:27.744Z,1011.92
2018-10-21T07:14:27.727Z,1011.91
2018-10-21T07:15:27.775Z,1011.96
2018-10-21T07:16:27.741Z,1012.00
2018-10-21T07:17:27.694Z,1011.97
2018-10-21T07:18:27.681Z,1011.98
2018-10-21T07:19:27.682Z,1011.98
2018-10-21T07:20:27.666Z,1012.04
2018-10-21T07:21:27.820Z,1011.97
2018-10-21T07:22:27.642Z,1011.99
2018-10-21T07:23:27.630Z,1012.01
2018-10-21T07:24:28.591Z,1012.05
2018-10-21T07:25:27.608Z,1012.01
2018-10-21T07:26:38.235Z,1012.00
2018-10-21T07:27:27.584Z,1011.98
2018-10-21T07:28:27.624Z,1011.93
2018-10-21T07:29:27.567Z,1011.98
2018-10-21T07:30:27.560Z,1011.93
2018-10-21T07:31:27.541Z,1011.93
2018-10-21T07:32:27.575Z,1011.97
2018-10-21T07:33:27.522Z,1011.92
2018-10-21T07:34:27.512Z,1011.93
2018-10-21T07:35:27.500Z,1011.94
2018-10-21T07:36:27.591Z,1011.93
2018-10-21T07:37:27.473Z,1011.94
2018-10-21T07:38:27.501Z,1011.97
2018-10-21T07:39:27.459Z,1011.95
2018-10-21T07:40:27.451Z,1011.96
2018-10-21T07:41:27.431Z,1011.92
2018-10-21T07:42:27.425Z,1011.94
2018-10-21T07:43:27.422Z,1011.95
2018-10-21T07:44:27.441Z,1011.88
2018-10-21T07:45:27.394Z,1011.89
2018-10-21T07:46:27.388Z,1011.87
2018-10-21T07:47:27.376Z,1011.89
2018-10-21T07:48:27.365Z,1011.89
2018-10-21T07:49:27.354Z,1011.89
2018-10-21T07:50:27.354Z,1011.89
2018-10-21T07:51:27.333Z,1011.90
2018-10-21T07:52:27.316Z,1011.81
2018-10-21T07:53:27.302Z,1011.85
2018-10-21T07:54:27.293Z,1011.78
2018-10-21T07:55:27.316Z,1011.86
2018-10-21T07:56:27.308Z,1011.83
2018-10-21T07:57:37.612Z,1011.82
2018-10-21T07:58:27.247Z,1011.79
2018-10-21T07:59:27.241Z,1011.81
2018-10-21T08:00:27.229Z,1011.81
2018-10-21T08:01:27.346Z,1011.74
2018-10-21T08:02:27.227Z,1011.74
2018-10-21T08:03:27.196Z,1011.73
2018-10-21T08:04:27.187Z,1011.66
2018-10-21T08:05:27.175Z,1011.69
2018-10-21T08:06:27.160Z,1011.65
2018-10-21T08:07:27.156Z,1011.65
2018-10-21T08:08:27.233Z,1011.68
2018-10-21T08:09:27.131Z,1011.61
2018-10-21T08:10:27.127Z,1011.62
2018-10-21T08:11:27.114Z,1011.65
2018-10-21T08:12:27.107Z,1011.64
2018-10-21T08:13:27.091Z,1011.60
2018-10-21T08:14:27.185Z,1011.65
2018-10-21T08:15:27.073Z,1011.64
2018-10-21T08:16:27.055Z,1011.65
2018-10-21T08:17:27.045Z,1011.59
2018-10-21T08:18:27.030Z,1011.59
2018-10-21T08:19:27.019Z,1011.60
2018-10-21T08:20:27.055Z,1011.62
2018-10-21T08:21:27.010Z,1011.60
2018-10-21T08:22:26.984Z,1011.57
2018-10-21T08:23:26.973Z,1011.52
2018-10-21T08:24:26.972Z,1011.49
2018-10-21T08:25:26.960Z,1011.47
2018-10-21T08:26:26.987Z,1011.50
2018-10-21T08:27:27.102Z,1011.46
2018-10-21T08:28:37.624Z,1011.48
2018-10-21T08:29:26.910Z,1011.53
2018-10-21T08:30:26.936Z,1011.55
2018-10-21T08:31:26.890Z,1011.47
2018-10-21T08:32:26.921Z,1011.47
2018-10-21T08:33:26.869Z,1011.44
2018-10-21T08:34:26.853Z,1011.39
2018-10-21T08:35:26.854Z,1011.41
2018-10-21T08:36:26.837Z,1011.31
2018-10-21T08:37:26.825Z,1011.35
2018-10-21T08:38:26.834Z,1011.36
2018-10-21T08:39:26.813Z,1011.37
2018-10-21T08:40:26.794Z,1011.41
2018-10-21T08:41:26.783Z,1011.43
2018-10-21T08:42:26.775Z,1011.41
2018-10-21T08:43:26.765Z,1011.47
2018-10-21T08:44:26.765Z,1011.48
2018-10-21T08:45:26.737Z,1011.47
2018-10-21T08:46:26.799Z,1011.49
2018-10-21T08:47:26.715Z,1011.48
2018-10-21T08:48:26.711Z,1011.46
2018-10-21T08:49:26.744Z,1011.47
2018-10-21T08:50:26.726Z,1011.49
2018-10-21T08:51:26.670Z,1011.51
2018-10-21T08:52:26.661Z,1011.48
2018-10-21T08:53:26.661Z,1011.48
2018-10-21T08:54:26.635Z,1011.48
2018-10-21T08:55:26.627Z,1011.50
2018-10-21T08:56:26.641Z,1011.44
2018-10-21T08:57:26.605Z,1011.41
2018-10-21T08:58:26.609Z,1011.49
2018-10-21T08:59:36.674Z,1011.48
2018-10-21T09:00:26.574Z,1011.50
2018-10-21T09:01:26.561Z,1011.54
2018-10-21T09:02:26.707Z,1011.52
2018-10-21T09:03:26.540Z,1011.47
2018-10-21T09:04:26.536Z,1011.54
2018-10-21T09:05:26.527Z,1011.54
2018-10-21T09:06:26.520Z,1011.51
2018-10-21T09:07:26.500Z,1011.47
2018-10-21T09:08:26.508Z,1011.55
2018-10-21T09:09:26.473Z,1011.52
2018-10-21T09:10:26.511Z,1011.54
2018-10-21T09:11:26.449Z,1011.55
2018-10-21T09:12:26.437Z,1011.58
2018-10-21T09:13:26.436Z,1011.58
2018-10-21T09:14:26.465Z,1011.59
2018-10-21T09:15:26.483Z,1011.53
2018-10-21T09:16:26.401Z,1011.54
2018-10-21T09:17:26.390Z,1011.54
2018-10-21T09:18:26.376Z,1011.51
2018-10-21T09:19:26.364Z,1011.52
2018-10-21T09:20:26.398Z,1011.57
2018-10-21T09:21:26.350Z,1011.58
2018-10-21T09:22:26.335Z,1011.51
2018-10-21T09:23:26.324Z,1011.54
2018-10-21T09:24:26.313Z,1011.52
2018-10-21T09:25:26.302Z,1011.53
2018-10-21T09:26:26.324Z,1011.49
2018-10-21T09:27:26.289Z,1011.47
2018-10-21T09:28:26.277Z,1011.44
2018-10-21T09:29:26.258Z,1011.45
2018-10-21T09:30:36.911Z,1011.43
2018-10-21T09:31:26.236Z,1011.45
2018-10-21T09:32:26.263Z,1011.39
2018-10-21T09:33:26.284Z,1011.39
2018-10-21T09:34:26.205Z,1011.39
2018-10-21T09:35:26.191Z,1011.37
2018-10-21T09:36:26.696Z,1011.46
2018-10-21T09:37:26.167Z,1011.47
2018-10-21T09:38:26.175Z,1011.36
2018-10-21T09:39:26.144Z,1011.48
2018-10-21T09:40:26.143Z,1011.46
2018-10-21T09:41:26.127Z,1011.48
2018-10-21T09:42:26.119Z,1011.47
2018-10-21T09:43:26.101Z,1011.38
2018-10-21T09:44:26.131Z,1011.41
2018-10-21T09:45:26.080Z,1011.30
2018-10-21T09:46:26.074Z,1011.28
2018-10-21T09:47:26.064Z,1011.32
2018-10-21T09:48:26.053Z,1011.29
2018-10-21T09:49:26.042Z,1011.21
2018-10-21T09:50:26.062Z,1011.23
2018-10-21T09:51:26.015Z,1011.34
2018-10-21T09:52:26.014Z,1011.26
2018-10-21T09:53:25.995Z,1011.24
2018-10-21T09:54:25.984Z,1011.30
2018-10-21T09:55:25.967Z,1011.27
2018-10-21T09:56:25.998Z,1011.23
2018-10-21T09:57:25.966Z,1011.27
2018-10-21T09:58:25.992Z,1011.17
2018-10-21T09:59:25.928Z,1011.17
2018-10-21T10:00:25.916Z,1011.12
2018-10-21T10:01:36.769Z,1011.12
2018-10-21T10:02:25.888Z,1011.10
2018-10-21T10:03:25.878Z,1011.08
2018-10-21T10:04:25.879Z,1011.02
2018-10-21T10:05:25.958Z,1011.11
2018-10-21T10:06:25.844Z,1010.97
2018-10-21T10:07:25.879Z,1011.00
2018-10-21T10:08:25.826Z,1010.97
2018-10-21T10:09:25.821Z,1010.96
2018-10-21T10:10:25.802Z,1010.92
2018-10-21T10:11:25.793Z,1010.87
2018-10-21T10:12:25.776Z,1010.84
2018-10-21T10:13:25.801Z,1010.85
2018-10-21T10:14:25.764Z,1010.90
2018-10-21T10:15:25.743Z,1010.79
2018-10-21T10:16:25.734Z,1010.84
2018-10-21T10:17:25.770Z,1010.83
2018-10-21T10:18:25.722Z,1010.77
2018-10-21T10:19:25.740Z,1010.73
2018-10-21T10:20:25.693Z,1010.79
2018-10-21T10:21:25.679Z,1010.77
2018-10-21T10:22:25.667Z,1010.74
2018-10-21T10:23:25.693Z,1010.64
2018-10-21T10:24:25.645Z,1010.51
2018-10-21T10:25:25.677Z,1010.55
2018-10-21T10:26:25.629Z,1010.56
2018-10-21T10:27:25.615Z,1010.61
2018-10-21T10:28:25.622Z,1010.61
2018-10-21T10:29:25.594Z,1010.61
2018-10-21T10:30:25.640Z,1010.58
2018-10-21T10:31:25.611Z,1010.58
2018-10-21T10:32:35.712Z,1010.61
2018-10-21T10:33:25.549Z,1010.58
2018-10-21T10:34:25.533Z,1010.63
2018-10-21T10:35:25.525Z,1010.62
2018-10-21T10:36:25.510Z,1010.60
2018-10-21T10:37:25.785Z,1010.62
2018-10-21T10:38:25.498Z,1010.65
2018-10-21T10:39:25.480Z,1010.65
2018-10-21T10:40:25.468Z,1010.64
2018-10-21T10:41:25.456Z,1010.57
2018-10-21T10:42:25.518Z,1010.48
2018-10-21T10:43:25.474Z,1010.47
2018-10-21T10:44:25.425Z,1010.43
2018-10-21T10:45:25.414Z,1010.46
2018-10-21T10:46:25.404Z,1010.36
2018-10-21T10:47:25.400Z,1010.35
2018-10-21T10:48:25.381Z,1010.37
2018-10-21T10:49:25.415Z,1010.30
2018-10-21T10:50:25.366Z,1010.25
2018-10-21T10:51:25.347Z,1010.28
2018-10-21T10:52:25.340Z,1010.26
2018-10-21T10:53:25.324Z,1010.24
2018-10-21T10:54:25.313Z,1010.25
2018-10-21T10:55:25.317Z,1010.25
2018-10-21T10:56:25.289Z,1010.23
2018-10-21T10:57:25.307Z,1010.20
2018-10-21T10:58:25.272Z,1010.16
2018-10-21T10:59:25.267Z,1010.27
2018-10-21T11:00:25.258Z,1010.19
2018-10-21T11:01:25.274Z,1010.21
2018-10-21T11:02:25.226Z,1010.17
2018-10-21T11:03:35.233Z,1010.19
2018-10-21T11:04:25.201Z,1010.18
2018-10-21T11:05:25.194Z,1010.15
2018-10-21T11:06:25.226Z,1010.13
2018-10-21T11:07:25.205Z,1010.13
2018-10-21T11:08:25.164Z,1010.09
2018-10-21T11:09:25.149Z,1010.12
2018-10-21T11:10:25.146Z,1010.05
2018-10-21T11:11:25.128Z,1010.06
2018-10-21T11:12:25.114Z,1010.07
2018-10-21T11:13:25.312Z,1009.98
2018-10-21T11:14:25.094Z,1010.02
2018-10-21T11:15:25.083Z,1009.96
2018-10-21T11:16:25.066Z,1010.00
2018-10-21T11:17:25.057Z,1009.97
2018-10-21T11:18:25.044Z,1009.99
2018-10-21T11:19:25.209Z,1009.96
2018-10-21T11:20:25.034Z,1009.98
2018-10-21T11:21:25.018Z,1009.93
2018-10-21T11:22:25.082Z,1009.94
2018-10-21T11:23:24.991Z,1009.94
2018-10-21T11:24:24.986Z,1009.94
2018-10-21T11:25:25.021Z,1009.93
2018-10-21T11:26:24.964Z,1009.91
2018-10-21T11:27:24.954Z,1009.99
2018-10-21T11:28:24.939Z,1009.95
2018-10-21T11:29:24.924Z,1010.03
2018-10-21T11:30:24.920Z,1009.97
2018-10-21T11:31:24.941Z,1010.02
2018-10-21T11:32:24.894Z,1009.98
2018-10-21T11:33:24.886Z,1009.90
2018-10-21T11:34:34.740Z,1009.90
2018-10-21T11:35:24.864Z,1009.92
2018-10-21T11:36:24.851Z,1009.86
2018-10-21T11:37:25.004Z,1009.82
2018-10-21T11:38:24.829Z,1009.81
2018-10-21T11:39:24.816Z,1009.80
2018-10-21T11:40:24.804Z,1009.78
2018-10-21T11:41:24.811Z,1009.81
2018-10-21T11:42:24.780Z,1009.77
2018-10-21T11:43:24.833Z,1009.76
2018-10-21T11:44:24.768Z,1009.73
2018-10-21T11:45:24.773Z,1009.76
2018-10-21T11:46:24.770Z,1009.76
2018-10-21T11:47:24.741Z,1009.69
2018-10-21T11:48:24.812Z,1009.69
2018-10-21T11:49:24.745Z,1009.69
2018-10-21T11:50:24.700Z,1009.72
2018-10-21T11:51:24.693Z,1009.73
2018-10-21T11:52:24.706Z,1009.74
2018-10-21T11:53:24.665Z,1009.64
2018-10-21T11:54:24.659Z,1009.64
2018-10-21T11:55:24.696Z,1009.60
2018-10-21T11:56:24.631Z,1009.55
2018-10-21T11:57:24.627Z,1009.54
2018-10-21T11:58:24.616Z,1009.41
2018-10-21T11:59:24.599Z,1009.42
2018-10-21T12:00:24.614Z,1009.38
2018-10-21T12:01:24.678Z,1009.39
2018-10-21T12:02:24.591Z,1009.38
2018-10-21T12:03:24.603Z,1009.29
2018-10-21T12:04:24.571Z,1009.34
2018-10-21T12:05:34.781Z,1009.33